createdAt,value
2019-05-26T00:01:36.526Z,69.96
2019-05-26T00:04:08.360Z,69.87
2019-05-26T00:06:40.675Z,69.88
2019-05-26T00:09:12.507Z,69.96
2019-05-26T00:11:44.586Z,69.98
2019-05-26T00:14:16.399Z,70.11
2019-05-26T00:16:48.514Z,70.29
2019-05-26T00:19:20.300Z,70.35
2019-05-26T00:21:52.159Z,70.35
2019-05-26T00:24:24.375Z,70.48
2019-05-26T00:26:56.578Z,70.37
2019-05-26T00:29:28.409Z,70.38
2019-05-26T00:32:01.580Z,70.56
2019-05-26T00:34:33.379Z,70.50
2019-05-26T00:37:05.455Z,70.53
2019-05-26T00:39:37.811Z,70.65
2019-05-26T00:42:10.248Z,70.49
2019-05-26T00:44:42.068Z,70.45
2019-05-26T00:47:13.975Z,70.38
2019-05-26T00:49:45.801Z,70.49
2019-05-26T00:52:17.945Z,70.49
2019-05-26T00:54:49.957Z,70.41
2019-05-26T00:57:21.802Z,70.63
2019-05-26T00:59:53.710Z,70.77
2019-05-26T01:02:25.503Z,71.00
2019-05-26T01:04:57.307Z,70.82
2019-05-26T01:07:30.288Z,70.83
2019-05-26T01:10:02.173Z,70.70
2019-05-26T01:12:34.109Z,70.85
2019-05-26T01:15:06.272Z,71.02
2019-05-26T01:17:38.516Z,70.91
2019-05-26T01:20:11.004Z,70.97
2019-05-26T01:22:42.971Z,70.92
2019-05-26T01:25:15.171Z,70.97
2019-05-26T01:27:47.156Z,70.90
2019-05-26T01:30:20.801Z,71.07
2019-05-26T01:32:52.862Z,70.97
2019-05-26T01:35:24.664Z,71.09
2019-05-26T01:37:56.478Z,71.15
2019-05-26T01:40:39.461Z,71.18
2019-05-26T01:43:12.270Z,71.27
2019-05-26T01:45:44.029Z,71.66
2019-05-26T01:48:16.120Z,71.39
2019-05-26T01:50:47.850Z,71.34
2019-05-26T01:53:19.931Z,71.26
2019-05-26T01:55:51.942Z,71.34
2019-05-26T01:58:23.956Z,71.77
2019-05-26T02:00:55.686Z,72.13
2019-05-26T02:03:27.785Z,72.42
2019-05-26T02:05:59.544Z,72.49
2019-05-26T02:08:39.290Z,72.57
2019-05-26T02:11:05.211Z,72.55
2019-05-26T02:13:37.022Z,72.48
2019-05-26T02:16:08.804Z,72.47
2019-05-26T02:18:40.893Z,72.33
2019-05-26T02:21:14.797Z,72.14
2019-05-26T02:23:46.254Z,72.08
2019-05-26T02:26:18.047Z,72.01
2019-05-26T02:28:51.310Z,71.98
2019-05-26T02:31:23.116Z,71.83
2019-05-26T02:33:54.910Z,71.89
2019-05-26T02:36:26.709Z,72.27
2019-05-26T02:39:02.552Z,72.36
2019-05-26T02:41:32.251Z,72.35
2019-05-26T02:44:04.000Z,72.31
2019-05-26T02:46:35.772Z,72.05
2019-05-26T02:49:07.942Z,72.09
2019-05-26T02:51:39.705Z,72.21
2019-05-26T02:54:11.983Z,72.16
2019-05-26T02:56:44.089Z,72.01
2019-05-26T02:59:16.215Z,71.87
2019-05-26T03:02:02.486Z,72.01
2019-05-26T03:04:23.011Z,71.98
2019-05-26T03:06:57.880Z,72.01
2019-05-26T03:09:31.845Z,72.07
2019-05-26T03:12:06.047Z,72.06
2019-05-26T03:14:42.657Z,72.09
2019-05-26T03:17:15.853Z,72.34
2019-05-26T03:19:52.096Z,72.38
2019-05-26T03:22:28.873Z,72.18
2019-05-26T03:25:04.464Z,71.97
2019-05-26T03:27:36.446Z,71.87
2019-05-26T03:30:08.821Z,71.74
2019-05-26T03:32:40.679Z,71.60
2019-05-26T03:35:12.971Z,71.53
2019-05-26T03:37:44.781Z,71.46
2019-05-26T03:40:16.922Z,71.40
2019-05-26T03:42:49.091Z,71.41
2019-05-26T03:45:45.011Z,71.21
2019-05-26T03:48:16.771Z,71.17
2019-05-26T03:50:48.844Z,71.30
2019-05-26T03:53:20.627Z,71.27
2019-05-26T03:55:52.433Z,71.15
2019-05-26T03:58:24.376Z,70.90
2019-05-26T04:00:56.389Z,70.71
2019-05-26T04:03:28.212Z,70.55
2019-05-26T04:06:00.208Z,70.58
2019-05-26T04:08:32.015Z,70.66
2019-05-26T04:11:04.035Z,70.79
2019-05-26T04:13:37.348Z,70.71
2019-05-26T04:16:09.620Z,70.60
2019-05-26T04:18:41.431Z,70.30
2019-05-26T04:21:14.653Z,70.41
2019-05-26T04:23:47.470Z,70.78
2019-05-26T04:26:19.364Z,70.97
2019-05-26T04:28:51.464Z,70.77
2019-05-26T04:31:23.532Z,70.44
2019-05-26T04:33:55.313Z,70.09
2019-05-26T04:36:27.187Z,69.39
2019-05-26T04:38:58.982Z,68.77
2019-05-26T04:41:30.992Z,67.97
2019-05-26T04:44:04.585Z,67.49
2019-05-26T04:46:36.648Z,66.95
2019-05-26T04:49:08.485Z,66.57
2019-05-26T04:51:40.475Z,66.01
2019-05-26T04:54:12.245Z,65.99
2019-05-26T04:56:44.122Z,65.06
2019-05-26T04:59:16.226Z,64.02
2019-05-26T05:01:49.689Z,64.31
2019-05-26T05:04:21.428Z,64.13
2019-05-26T05:06:53.476Z,64.02
2019-05-26T05:09:25.238Z,63.97
2019-05-26T05:11:57.303Z,63.80
2019-05-26T05:14:29.342Z,63.52
2019-05-26T05:17:01.206Z,63.45
2019-05-26T05:19:33.015Z,63.10
2019-05-26T05:22:04.961Z,63.04
2019-05-26T05:24:36.756Z,62.46
2019-05-26T05:27:08.782Z,62.07
2019-05-26T05:29:40.914Z,61.83
2019-05-26T05:32:12.733Z,62.21
2019-05-26T05:34:44.567Z,61.91
2019-05-26T05:37:16.680Z,61.39
2019-05-26T05:39:48.596Z,59.61
2019-05-26T05:42:20.776Z,59.68
2019-05-26T05:44:53.926Z,60.20
2019-05-26T05:47:26.073Z,59.68
2019-05-26T05:49:57.838Z,59.46
2019-05-26T05:52:29.845Z,58.47
2019-05-26T05:55:01.667Z,59.59
2019-05-26T05:57:33.675Z,59.32
2019-05-26T06:00:06.812Z,58.90
2019-05-26T06:02:38.836Z,58.24
2019-05-26T06:05:11.324Z,57.24
2019-05-26T06:07:44.602Z,57.22
2019-05-26T06:10:17.530Z,56.48
2019-05-26T06:12:49.651Z,55.26
2019-05-26T06:15:21.710Z,57.18
2019-05-26T06:17:53.503Z,57.79
2019-05-26T06:20:25.344Z,56.66
2019-05-26T06:22:57.199Z,57.25
2019-05-26T06:25:29.079Z,57.22
2019-05-26T06:28:01.201Z,57.18
2019-05-26T06:30:33.222Z,55.07
2019-05-26T06:33:05.262Z,55.22
2019-05-26T06:35:37.114Z,55.84
2019-05-26T06:38:09.300Z,55.91
2019-05-26T06:40:41.257Z,53.95
2019-05-26T06:43:13.097Z,53.38
2019-05-26T06:45:45.122Z,52.94
2019-05-26T06:48:17.119Z,53.67
2019-05-26T06:50:48.901Z,54.23
2019-05-26T06:53:20.988Z,56.58
2019-05-26T06:55:52.792Z,54.24
2019-05-26T06:58:25.009Z,53.17
2019-05-26T07:00:56.764Z,54.92
2019-05-26T07:03:28.834Z,52.96
2019-05-26T07:06:00.633Z,52.95
2019-05-26T07:08:32.416Z,53.08
2019-05-26T07:11:04.254Z,51.19
2019-05-26T07:13:36.149Z,48.03
2019-05-26T07:16:07.931Z,49.84
2019-05-26T07:18:40.103Z,49.80
2019-05-26T07:21:12.112Z,48.11
2019-05-26T07:23:44.461Z,48.09
2019-05-26T07:26:16.824Z,47.42
2019-05-26T07:28:49.412Z,49.34
2019-05-26T07:31:21.660Z,47.93
2019-05-26T07:33:53.568Z,47.19
2019-05-26T07:36:25.364Z,47.30
2019-05-26T07:38:57.554Z,47.08
2019-05-26T07:41:29.372Z,46.54
2019-05-26T07:44:01.483Z,46.64
2019-05-26T07:46:33.620Z,45.92
2019-05-26T07:49:05.610Z,47.36
2019-05-26T07:51:37.382Z,46.23
2019-05-26T07:54:24.611Z,45.46
2019-05-26T07:56:44.515Z,46.34
2019-05-26T07:59:16.443Z,46.11
2019-05-26T08:01:48.763Z,45.93
2019-05-26T08:04:21.097Z,45.21
2019-05-26T08:06:52.936Z,45.70
2019-05-26T08:09:25.713Z,44.05
2019-05-26T08:11:58.237Z,45.77
2019-05-26T08:14:30.251Z,46.45
2019-05-26T08:17:02.082Z,44.88
2019-05-26T08:19:34.188Z,45.94
2019-05-26T08:22:06.107Z,44.90
2019-05-26T08:24:38.027Z,45.25
2019-05-26T08:27:09.798Z,45.15
2019-05-26T08:29:41.864Z,44.53
2019-05-26T08:32:15.165Z,43.70
2019-05-26T08:34:47.513Z,45.37
2019-05-26T08:37:19.310Z,45.83
2019-05-26T08:39:51.339Z,44.66
2019-05-26T08:42:28.749Z,43.61
2019-05-26T08:44:57.450Z,44.69
2019-05-26T08:47:29.906Z,45.26
2019-05-26T08:50:02.058Z,45.28
2019-05-26T08:52:33.937Z,45.16
2019-05-26T08:55:06.102Z,45.95
2019-05-26T08:57:39.304Z,45.35
2019-05-26T09:00:13.296Z,43.17
2019-05-26T09:02:46.496Z,43.90
2019-05-26T09:05:19.186Z,42.08
2019-05-26T09:07:51.177Z,44.05
2019-05-26T09:10:23.838Z,44.67
2019-05-26T09:13:01.332Z,42.32
2019-05-26T09:15:30.107Z,42.70
2019-05-26T09:18:02.155Z,43.39
2019-05-26T09:20:34.076Z,44.13
2019-05-26T09:23:05.912Z,43.00
2019-05-26T09:25:38.058Z,44.70
2019-05-26T09:28:09.847Z,44.59
2019-05-26T09:30:41.860Z,43.66
2019-05-26T09:33:13.911Z,44.41
2019-05-26T09:35:45.950Z,44.19
2019-05-26T09:38:17.849Z,41.42
2019-05-26T09:40:49.933Z,42.71
2019-05-26T09:43:21.815Z,42.56
2019-05-26T09:45:53.859Z,41.22
2019-05-26T09:48:25.987Z,40.96
2019-05-26T09:50:58.221Z,42.32
2019-05-26T09:53:30.100Z,40.62
2019-05-26T09:56:02.307Z,40.65
2019-05-26T09:58:34.194Z,40.94
2019-05-26T10:01:06.172Z,41.02
2019-05-26T10:03:38.203Z,40.73
2019-05-26T10:06:10.308Z,40.10
2019-05-26T10:08:42.125Z,39.18
2019-05-26T10:11:13.973Z,38.17
2019-05-26T10:13:45.781Z,38.24
2019-05-26T10:16:17.936Z,40.69
2019-05-26T10:18:50.275Z,40.93
2019-05-26T10:21:22.490Z,42.13
2019-05-26T10:23:54.329Z,41.38
2019-05-26T10:26:26.288Z,42.21
2019-05-26T10:29:00.531Z,40.61
2019-05-26T10:31:31.938Z,40.10
2019-05-26T10:34:03.986Z,39.83
2019-05-26T10:36:36.428Z,41.34
2019-05-26T10:39:09.872Z,40.06
2019-05-26T10:41:41.896Z,39.72
2019-05-26T10:44:16.401Z,40.33
2019-05-26T10:46:48.579Z,41.77
2019-05-26T10:49:20.531Z,41.26
2019-05-26T10:51:52.470Z,41.52
2019-05-26T10:54:24.413Z,40.85
2019-05-26T10:56:56.453Z,41.14
2019-05-26T10:59:28.293Z,41.13
2019-05-26T11:02:00.341Z,40.16
2019-05-26T11:04:32.369Z,40.32
2019-05-26T11:07:04.868Z,39.87
2019-05-26T11:09:37.011Z,39.19
2019-05-26T11:12:09.282Z,40.17
2019-05-26T11:14:41.251Z,38.70
2019-05-26T11:17:14.184Z,38.03
2019-05-26T11:19:46.259Z,37.60
2019-05-26T11:22:18.407Z,37.84
2019-05-26T11:24:51.641Z,38.94
2019-05-26T11:27:23.469Z,37.83
2019-05-26T11:29:55.315Z,36.42
2019-05-26T11:32:27.411Z,36.53
2019-05-26T11:35:01.897Z,37.25
2019-05-26T11:37:33.259Z,36.27
2019-05-26T11:40:05.399Z,36.56
2019-05-26T11:42:38.560Z,36.43
2019-05-26T11:45:12.428Z,37.36
2019-05-26T11:47:44.808Z,37.85
2019-05-26T11:50:17.915Z,36.37
2019-05-26T11:52:49.886Z,36.05
2019-05-26T11:55:21.722Z,36.20
2019-05-26T11:57:53.673Z,36.77
2019-05-26T12:00:27.058Z,35.78
2019-05-26T12:03:00.587Z,35.24
2019-05-26T12:05:32.987Z,34.63
2019-05-26T12:08:04.843Z,35.02
2019-05-26T12:10:36.739Z,34.90
2019-05-26T12:13:08.668Z,34.75
2019-05-26T12:15:40.499Z,33.95
2019-05-26T12:18:12.479Z,34.06
2019-05-26T12:20:44.593Z,34.09
2019-05-26T12:23:16.709Z,32.78
2019-05-26T12:25:48.651Z,32.12
2019-05-26T12:28:20.482Z,31.95
2019-05-26T12:30:52.326Z,31.02
2019-05-26T12:33:24.759Z,33.63
2019-05-26T12:35:56.922Z,32.68
2019-05-26T12:38:28.893Z,32.80
2019-05-26T12:41:00.778Z,30.63
2019-05-26T12:43:33.156Z,32.17
2019-05-26T12:46:05.034Z,30.93
2019-05-26T12:48:37.572Z,29.37
2019-05-26T12:51:09.634Z,29.05
2019-05-26T12:53:41.634Z,28.44
2019-05-26T12:56:13.431Z,26.90
2019-05-26T12:58:45.264Z,26.41
2019-05-26T13:01:17.120Z,25.76
2019-05-26T13:03:48.933Z,26.96
2019-05-26T13:06:21.108Z,26.10
2019-05-26T13:08:53.043Z,24.71
2019-05-26T13:11:24.815Z,23.57
2019-05-26T13:13:56.695Z,21.99
2019-05-26T13:16:28.531Z,21.81
2019-05-26T13:19:00.739Z,20.92
2019-05-26T13:21:32.893Z,21.61
2019-05-26T13:24:06.491Z,20.77
2019-05-26T13:26:38.264Z,20.51
2019-05-26T13:29:10.339Z,20.14
2019-05-26T13:31:42.094Z,19.58
2019-05-26T13:34:14.242Z,19.35
2019-05-26T13:36:46.360Z,19.59
2019-05-26T13:39:18.325Z,21.34
2019-05-26T13:41:50.125Z,21.60
2019-05-26T13:44:22.103Z,20.39
2019-05-26T13:46:53.875Z,18.93
2019-05-26T13:49:25.770Z,18.62
2019-05-26T13:51:57.850Z,17.14
2019-05-26T13:54:30.750Z,19.01
2019-05-26T13:57:02.629Z,18.37
2019-05-26T13:59:34.502Z,17.90
2019-05-26T14:02:06.336Z,18.34
2019-05-26T14:04:38.323Z,18.14
2019-05-26T14:07:11.377Z,17.29
2019-05-26T14:09:43.389Z,17.25
2019-05-26T14:12:15.185Z,16.74
2019-05-26T14:14:47.199Z,15.72
2019-05-26T14:17:21.121Z,15.28
2019-05-26T14:19:54.592Z,15.66
2019-05-26T14:22:26.685Z,15.69
2019-05-26T14:24:58.861Z,16.78
2019-05-26T14:27:30.772Z,16.19
2019-05-26T14:30:02.876Z,16.44
2019-05-26T14:32:34.776Z,17.54
2019-05-26T14:35:07.421Z,20.01
2019-05-26T14:37:39.982Z,22.22
2019-05-26T14:40:12.470Z,21.09
2019-05-26T14:42:44.372Z,19.54
2019-05-26T14:45:16.734Z,17.30
2019-05-26T14:47:48.632Z,16.95
2019-05-26T14:50:21.249Z,18.05
2019-05-26T14:52:53.419Z,18.58
2019-05-26T14:55:26.925Z,18.41
2019-05-26T14:58:14.224Z,17.79
2019-05-26T15:00:32.784Z,16.88
2019-05-26T15:03:04.629Z,17.95
2019-05-26T15:05:36.601Z,20.84
2019-05-26T15:08:08.701Z,18.16
2019-05-26T15:10:40.998Z,17.22
2019-05-26T15:13:12.788Z,16.27
2019-05-26T15:15:44.887Z,17.30
2019-05-26T15:18:16.795Z,18.54
2019-05-26T15:20:48.914Z,19.07
2019-05-26T15:23:20.785Z,19.73
2019-05-26T15:25:53.088Z,18.87
2019-05-26T15:28:24.916Z,20.56
2019-05-26T15:30:56.798Z,20.89
2019-05-26T15:33:28.627Z,21.35
2019-05-26T15:36:00.931Z,20.24
2019-05-26T15:38:42.456Z,20.19
2019-05-26T15:41:06.730Z,20.47
2019-05-26T15:43:38.806Z,21.40
2019-05-26T15:46:24.320Z,22.10
2019-05-26T15:48:44.586Z,21.26
2019-05-26T15:51:17.792Z,19.98
2019-05-26T15:53:50.739Z,19.20
2019-05-26T15:56:22.584Z,20.22
2019-05-26T15:58:54.346Z,20.53
2019-05-26T16:01:26.584Z,19.79
2019-05-26T16:03:58.429Z,20.11
2019-05-26T16:06:30.720Z,21.63
2019-05-26T16:09:02.696Z,23.83
2019-05-26T16:11:35.315Z,24.36
2019-05-26T16:14:07.638Z,26.06
2019-05-26T16:16:41.571Z,26.40
2019-05-26T16:19:13.214Z,26.67
2019-05-26T16:21:45.167Z,25.83
2019-05-26T16:24:17.348Z,25.81
2019-05-26T16:26:49.285Z,24.37
2019-05-26T16:29:21.107Z,23.80
2019-05-26T16:46:39.173Z,26.56
2019-05-26T16:49:11.136Z,28.09
2019-05-26T16:51:43.225Z,29.03
2019-05-26T16:54:15.368Z,30.03
2019-05-26T16:56:47.528Z,31.20
2019-05-26T16:59:19.332Z,31.34
2019-05-26T17:01:51.662Z,31.43
2019-05-26T17:04:23.507Z,31.84
2019-05-26T17:06:55.681Z,32.50
2019-05-26T17:09:27.730Z,32.66
2019-05-26T17:11:59.823Z,32.61
2019-05-26T17:14:31.649Z,33.18
2019-05-26T17:17:14.190Z,33.29
2019-05-26T17:19:37.260Z,34.23
2019-05-26T17:22:09.095Z,34.83
2019-05-26T17:24:41.142Z,34.87
2019-05-26T17:27:13.150Z,35.00
2019-05-26T17:29:45.089Z,35.11
2019-05-26T17:32:17.264Z,35.76
2019-05-26T17:34:49.274Z,35.99
2019-05-26T17:37:21.442Z,35.96
2019-05-26T17:39:53.702Z,36.47
2019-05-26T17:42:25.756Z,36.56
2019-05-26T17:44:57.695Z,36.88
2019-05-26T17:47:30.995Z,37.18
2019-05-26T17:50:03.113Z,37.68
2019-05-26T17:52:35.353Z,37.97
2019-05-26T17:55:07.861Z,38.20
2019-05-26T17:57:40.018Z,38.29
2019-05-26T18:00:13.576Z,38.94
2019-05-26T18:02:45.750Z,39.02
2019-05-26T18:05:18.061Z,39.15
2019-05-26T18:07:50.208Z,39.49
2019-05-26T18:10:22.659Z,39.73
2019-05-26T18:12:54.839Z,39.71
2019-05-26T18:15:26.773Z,39.91
2019-05-26T18:17:59.505Z,40.41
2019-05-26T18:20:31.387Z,40.76
2019-05-26T18:23:03.726Z,41.01
2019-05-26T18:25:35.916Z,41.33
2019-05-26T18:28:08.165Z,41.49
2019-05-26T18:30:40.315Z,42.16
2019-05-26T18:33:12.212Z,42.61
2019-05-26T18:35:44.082Z,42.91
2019-05-26T18:38:16.241Z,43.33
2019-05-26T18:40:48.072Z,45.11
2019-05-26T18:43:20.161Z,46.26
2019-05-26T18:45:52.064Z,45.47
2019-05-26T18:48:24.055Z,45.72
2019-05-26T18:50:55.986Z,47.38
2019-05-26T18:53:29.876Z,47.85
2019-05-26T18:56:02.587Z,48.77
2019-05-26T18:58:34.925Z,49.39
2019-05-26T19:01:07.548Z,50.04
2019-05-26T19:03:40.957Z,50.57
2019-05-26T19:06:13.060Z,50.60
2019-05-26T19:08:46.110Z,51.15
2019-05-26T19:11:18.707Z,51.78
2019-05-26T19:13:51.118Z,51.82
2019-05-26T19:16:23.197Z,52.20
2019-05-26T19:18:55.791Z,52.71
2019-05-26T19:21:28.204Z,52.82
2019-05-26T19:24:00.568Z,52.81
2019-05-26T19:26:33.212Z,53.22
2019-05-26T19:29:05.434Z,53.79
2019-05-26T19:31:37.320Z,54.38
2019-05-26T19:34:09.380Z,54.59
2019-05-26T19:36:41.242Z,54.68
2019-05-26T19:39:13.328Z,54.80
2019-05-26T19:41:45.562Z,55.36
2019-05-26T19:44:17.568Z,55.76
2019-05-26T19:46:52.792Z,56.11
2019-05-26T19:49:23.399Z,56.10
2019-05-26T19:51:55.929Z,55.81
2019-05-26T19:54:28.136Z,55.57
2019-05-26T19:57:00.403Z,56.37
2019-05-26T19:59:32.563Z,56.67
2019-05-26T20:02:17.932Z,57.25
2019-05-26T20:04:38.250Z,57.44
2019-05-26T20:07:11.419Z,56.63
2019-05-26T20:09:44.055Z,56.33
2019-05-26T20:12:16.904Z,56.21
2019-05-26T20:14:49.283Z,56.10
2019-05-26T20:17:21.854Z,56.27
2019-05-26T20:19:54.659Z,56.97
2019-05-26T20:22:26.787Z,57.79
2019-05-26T20:24:59.117Z,57.89
2019-05-26T20:27:31.565Z,57.87
2019-05-26T20:30:03.931Z,58.21
2019-05-26T20:32:36.044Z,58.40
2019-05-26T20:35:09.814Z,58.22
2019-05-26T20:37:41.899Z,58.44
2019-05-26T20:40:15.219Z,58.46
2019-05-26T20:42:47.486Z,58.46
2019-05-26T20:45:20.225Z,58.51
2019-05-26T20:47:52.436Z,58.47
2019-05-26T20:50:29.619Z,58.75
2019-05-26T20:52:59.821Z,59.67
2019-05-26T20:55:32.494Z,60.28
2019-05-26T20:58:05.242Z,60.67
2019-05-26T21:00:37.773Z,61.01
2019-05-26T21:03:09.985Z,61.18
2019-05-26T21:05:43.838Z,60.86
2019-05-26T21:08:16.194Z,60.99
2019-05-26T21:10:48.351Z,60.80
2019-05-26T21:13:20.327Z,60.65
2019-05-26T21:15:52.238Z,61.01
2019-05-26T21:18:24.073Z,61.37
2019-05-26T21:20:56.126Z,61.30
2019-05-26T21:23:28.070Z,61.19
2019-05-26T21:26:00.232Z,61.32
2019-05-26T21:28:32.268Z,61.46
2019-05-26T21:31:04.466Z,61.55
2019-05-26T21:33:36.365Z,61.65
2019-05-26T21:36:08.284Z,61.64
2019-05-26T21:38:40.121Z,61.48
2019-05-26T21:41:13.365Z,61.56
2019-05-26T21:43:45.376Z,61.53
2019-05-26T21:46:17.365Z,61.51
2019-05-26T21:48:49.221Z,61.32
2019-05-26T21:51:21.321Z,61.15
2019-05-26T21:53:53.202Z,60.91
2019-05-26T21:56:25.323Z,60.83
2019-05-26T21:58:57.085Z,60.83
2019-05-26T22:01:29.413Z,60.98
2019-05-26T22:04:02.193Z,61.16
2019-05-26T22:06:35.254Z,61.13
2019-05-26T22:09:08.901Z,61.14
2019-05-26T22:11:41.089Z,61.10
2019-05-26T22:14:12.873Z,61.18
2019-05-26T22:16:44.927Z,61.17
2019-05-26T22:19:16.757Z,60.95
2019-05-26T22:21:48.949Z,60.97
2019-05-26T22:24:20.730Z,60.97
2019-05-26T22:26:52.743Z,60.94
2019-05-26T22:29:24.802Z,60.71
2019-05-26T22:31:56.803Z,60.80
2019-05-26T22:34:28.599Z,60.94
2019-05-26T22:37:00.603Z,60.96
2019-05-26T22:39:32.423Z,60.90
2019-05-26T22:42:04.371Z,60.76
2019-05-26T22:44:36.524Z,60.71
2019-05-26T22:47:08.392Z,60.61
2019-05-26T22:49:40.205Z,60.55
2019-05-26T22:52:12.323Z,60.49
2019-05-26T22:54:44.119Z,60.17
2019-05-26T22:57:16.134Z,60.09
2019-05-26T22:59:47.961Z,60.12
2019-05-26T23:02:20.091Z,60.20
2019-05-26T23:04:52.543Z,60.25
2019-05-26T23:07:24.534Z,60.22
2019-05-26T23:09:56.294Z,60.28
2019-05-26T23:12:28.233Z,60.12
2019-05-26T23:15:00.009Z,60.00
2019-05-26T23:17:31.862Z,60.02
2019-05-26T23:20:03.642Z,60.07
2019-05-26T23:22:35.684Z,60.17
2019-05-26T23:25:07.822Z,60.00
2019-05-26T23:27:39.802Z,59.98
2019-05-26T23:30:12.209Z,60.00
2019-05-26T23:32:44.310Z,60.07
2019-05-26T23:35:16.985Z,60.18
2019-05-26T23:37:50.331Z,60.28
2019-05-26T23:40:22.101Z,60.51
2019-05-26T23:42:53.989Z,60.60
2019-05-26T23:45:25.942Z,60.37
2019-05-26T23:47:58.071Z,60.21
2019-05-26T23:50:29.905Z,60.12
2019-05-26T23:53:01.932Z,60.02
2019-05-26T23:55:33.710Z,60.18
2019-05-26T23:58:05.718Z,60.32
